Time;durP1;ratioP1;P1;durP2;ratioP2;P2;SDS_P1;SDS_P2;PMS_P1;PMS_P2;Temp;Humidity;BMP_temperature;BMP_pressure;BME280_temperature;BME280_humidity;BME280_pressure;Samples;Min_cycle;Max_cycle;Signal;HPM_P1;HPM_P2
2023/07/30 00:01:17;;;;;;;5.45;3.00;;;17.10;99.90;;;;;;5035559;28;20150;-62
2023/07/30 00:03:42;;;;;;;4.63;2.83;;;17.10;99.90;;;;;;5047041;28;20020;-61
2023/07/30 00:06:08;;;;;;;6.07;2.72;;;17.10;99.90;;;;;;5036249;28;20039;-63
2023/07/30 00:08:33;;;;;;;6.63;3.10;;;17.00;99.90;;;;;;5044258;28;20025;-61
2023/07/30 00:10:59;;;;;;;3.70;2.65;;;16.90;99.90;;;;;;5037361;28;20029;-61
2023/07/30 00:13:25;;;;;;;4.95;2.70;;;16.80;99.90;;;;;;5043235;28;20398;-60
2023/07/30 00:15:51;;;;;;;5.40;3.10;;;16.70;99.90;;;;;;5037444;28;20049;-61
2023/07/30 00:18:17;;;;;;;9.75;3.28;;;16.60;99.90;;;;;;5044377;28;20049;-61
2023/07/30 00:20:42;;;;;;;6.57;2.85;;;16.50;99.90;;;;;;5038063;28;20027;-62
2023/07/30 00:23:08;;;;;;;4.75;2.80;;;16.50;99.90;;;;;;5058376;28;20404;-62
2023/07/30 00:25:34;;;;;;;11.00;2.92;;;16.40;99.90;;;;;;5040954;28;20029;-61
2023/07/30 00:27:59;;;;;;;4.25;3.42;;;16.40;99.90;;;;;;5038552;28;20087;-61
2023/07/30 00:30:25;;;;;;;7.32;3.20;;;16.40;99.90;;;;;;5039176;28;20042;-61
2023/07/30 00:32:50;;;;;;;10.65;3.38;;;16.30;99.90;;;;;;5040878;28;20087;-61
2023/07/30 00:35:16;;;;;;;9.07;3.70;;;16.30;99.90;;;;;;5037942;28;20029;-59
2023/07/30 00:37:41;;;;;;;9.43;3.80;;;16.20;99.90;;;;;;5045287;28;20024;-60
2023/07/30 00:40:07;;;;;;;6.88;3.05;;;16.10;99.90;;;;;;5039078;28;20026;-62
2023/07/30 00:42:33;;;;;;;6.80;3.30;;;16.10;99.90;;;;;;5037479;28;20024;-61
2023/07/30 00:44:58;;;;;;;13.73;4.25;;;16.10;99.90;;;;;;5039112;28;20492;-58
2023/07/30 00:47:25;;;;;;;9.35;4.22;;;16.10;99.90;;;;;;5038057;28;20014;-61
2023/07/30 00:49:51;;;;;;;7.35;3.97;;;16.00;99.90;;;;;;5040364;28;20033;-61
2023/07/30 00:52:18;;;;;;;6.82;3.75;;;16.00;99.90;;;;;;5039140;28;20025;-62
2023/07/30 00:54:44;;;;;;;9.57;4.60;;;16.00;99.90;;;;;;5041859;28;20477;-59
2023/07/30 00:57:10;;;;;;;18.00;6.18;;;15.90;99.90;;;;;;5033107;28;20021;-61
2023/07/30 00:59:36;;;;;;;19.83;11.30;;;15.90;99.90;;;;;;5042964;28;20199;-61
2023/07/30 01:02:03;;;;;;;22.55;13.52;;;15.90;99.90;;;;;;5033920;28;20053;-62
2023/07/30 01:04:29;;;;;;;20.13;9.82;;;15.80;99.90;;;;;;5038329;28;20041;-61
2023/07/30 01:06:54;;;;;;;15.38;8.85;;;15.70;99.90;;;;;;5055216;28;20051;-61
2023/07/30 01:09:21;;;;;;;20.88;8.82;;;15.70;99.90;;;;;;5039351;28;20057;-61
2023/07/30 01:11:46;;;;;;;14.77;7.78;;;15.70;99.90;;;;;;5034238;28;20021;-61
2023/07/30 01:14:14;;;;;;;10.98;7.72;;;15.70;99.90;;;;;;5040248;28;20036;-61
2023/07/30 01:16:40;;;;;;;12.23;7.40;;;15.80;99.90;;;;;;5034590;28;20021;-60
2023/07/30 01:19:06;;;;;;;9.88;6.07;;;15.80;99.90;;;;;;5036334;28;20079;-59
2023/07/30 01:21:36;;;;;;;19.92;7.40;;;15.90;99.90;;;;;;5041210;28;20028;-60
2023/07/30 01:24:02;;;;;;;10.27;7.15;;;15.90;99.90;;;;;;5037228;28;20440;-62
2023/07/30 01:26:38;;;;;;;13.38;7.75;;;16.00;99.90;;;;;;5034962;28;20022;-61
2023/07/30 01:29:09;;;;;;;14.18;7.97;;;16.00;99.90;;;;;;5036371;28;20029;-61
2023/07/30 01:31:37;;;;;;;11.32;6.82;;;16.10;99.90;;;;;;5036396;28;20431;-59
2023/07/30 01:34:03;;;;;;;12.68;6.18;;;16.10;99.90;;;;;;5036703;28;20086;-62
2023/07/30 01:36:31;;;;;;;10.18;6.47;;;16.20;99.90;;;;;;5039593;28;20021;-62
2023/07/30 01:38:58;;;;;;;9.98;7.35;;;16.20;99.90;;;;;;5037879;28;20033;-62
2023/07/30 01:41:24;;;;;;;14.52;6.22;;;16.30;99.90;;;;;;5032852;28;20026;-61
2023/07/30 01:43:50;;;;;;;10.70;7.75;;;16.30;99.90;;;;;;5033385;28;20108;-62
2023/07/30 01:46:15;;;;;;;12.68;4.78;;;16.40;99.90;;;;;;5037228;28;20060;-61
2023/07/30 01:48:41;;;;;;;11.60;4.75;;;16.50;99.90;;;;;;5043759;28;20103;-62
2023/07/30 01:51:06;;;;;;;9.23;3.97;;;16.50;99.90;;;;;;5038612;28;20033;-59
2023/07/30 01:53:32;;;;;;;6.80;4.15;;;16.50;99.90;;;;;;5036883;28;20032;-61
2023/07/30 01:55:57;;;;;;;6.18;3.53;;;16.60;99.90;;;;;;5037732;28;20017;-62
2023/07/30 01:58:23;;;;;;;6.45;3.75;;;16.60;99.90;;;;;;5032957;28;20026;-61
2023/07/30 02:00:48;;;;;;;10.82;3.47;;;16.70;99.90;;;;;;5032818;28;20076;-62
2023/07/30 02:03:14;;;;;;;10.52;4.05;;;16.70;99.90;;;;;;5038638;28;20041;-61
2023/07/30 02:05:39;;;;;;;9.70;3.97;;;16.70;99.90;;;;;;5034784;28;20021;-61
2023/07/30 02:08:05;;;;;;;9.25;4.30;;;16.70;99.90;;;;;;5032634;28;20025;-60
2023/07/30 02:10:30;;;;;;;15.68;3.05;;;16.80;99.90;;;;;;5040857;28;20488;-60
2023/07/30 02:12:56;;;;;;;8.30;2.70;;;16.90;99.90;;;;;;5032298;28;20021;-62
2023/07/30 02:15:21;;;;;;;10.30;2.88;;;16.90;99.90;;;;;;5037460;28;20051;-61
2023/07/30 02:17:47;;;;;;;7.78;2.53;;;17.00;99.90;;;;;;5032223;28;20026;-61
2023/07/30 02:20:13;;;;;;;6.47;2.70;;;17.00;99.90;;;;;;5036133;28;20486;-62
2023/07/30 02:22:38;;;;;;;15.88;3.20;;;16.90;99.90;;;;;;5036434;28;20025;-61
2023/07/30 02:25:04;;;;;;;14.70;3.05;;;16.90;99.90;;;;;;5039305;28;20481;-62
2023/07/30 02:27:30;;;;;;;8.68;2.65;;;16.90;99.90;;;;;;5032571;28;20013;-61
2023/07/30 02:29:55;;;;;;;7.63;2.50;;;16.90;99.90;;;;;;5035566;28;20022;-59
2023/07/30 02:32:21;;;;;;;10.70;3.13;;;16.90;99.90;;;;;;5037456;28;20134;-60
2023/07/30 02:34:46;;;;;;;7.63;3.22;;;17.00;99.90;;;;;;5036226;28;20468;-61
2023/07/30 02:37:12;;;;;;;11.57;2.60;;;17.00;99.90;;;;;;5036859;28;20075;-62
2023/07/30 02:39:38;;;;;;;17.20;3.13;;;17.20;99.90;;;;;;5039017;28;20531;-62
2023/07/30 02:42:04;;;;;;;11.13;2.63;;;17.20;99.90;;;;;;5032973;28;20037;-61
2023/07/30 02:44:29;;;;;;;8.55;3.17;;;17.20;99.90;;;;;;5035426;28;20017;-61
2023/07/30 02:46:55;;;;;;;13.05;3.47;;;17.30;99.90;;;;;;5032174;28;20096;-60
2023/07/30 02:49:20;;;;;;;10.07;3.28;;;17.20;99.90;;;;;;5038352;28;20036;-60
2023/07/30 02:51:48;;;;;;;8.80;2.60;;;17.30;99.90;;;;;;5034264;28;20044;-60
2023/07/30 02:54:15;;;;;;;4.10;2.47;;;17.20;99.90;;;;;;5036706;28;20076;-61
2023/07/30 02:56:41;;;;;;;9.25;3.10;;;17.20;99.90;;;;;;5034920;28;20024;-62
2023/07/30 02:59:07;;;;;;;9.43;2.90;;;17.20;99.90;;;;;;5036320;28;20018;-61
2023/07/30 03:01:32;;;;;;;13.50;3.30;;;17.10;99.90;;;;;;5034182;28;20052;-60
2023/07/30 03:03:58;;;;;;;10.27;2.78;;;17.20;99.90;;;;;;5037065;28;20056;-61
2023/07/30 03:06:23;;;;;;;12.98;2.95;;;17.20;99.90;;;;;;5033986;28;20124;-61
2023/07/30 03:08:49;;;;;;;7.43;3.17;;;17.20;99.90;;;;;;5036598;28;20048;-62
2023/07/30 03:11:14;;;;;;;5.45;2.25;;;17.30;99.90;;;;;;5035366;28;20030;-63
2023/07/30 03:13:40;;;;;;;10.65;2.75;;;17.30;99.90;;;;;;5034040;28;20024;-61
2023/07/30 03:16:05;;;;;;;6.88;2.78;;;17.30;99.90;;;;;;5034143;28;20140;-60
2023/07/30 03:18:31;;;;;;;15.30;3.50;;;17.30;99.90;;;;;;5034033;28;20049;-60
2023/07/30 03:21:00;;;;;;;11.00;3.13;;;17.30;99.90;;;;;;5034202;28;20378;-62
2023/07/30 03:23:27;;;;;;;11.93;2.83;;;17.30;99.90;;;;;;5031143;28;20080;-60
2023/07/30 03:25:52;;;;;;;8.02;2.78;;;17.30;99.90;;;;;;5037170;28;20033;-62
2023/07/30 03:28:18;;;;;;;10.32;3.17;;;17.30;99.90;;;;;;5031385;28;20034;-61
2023/07/30 03:30:43;;;;;;;13.80;2.63;;;17.30;99.90;;;;;;5033451;28;20029;-62
2023/07/30 03:33:09;;;;;;;9.75;2.60;;;17.30;99.90;;;;;;5040450;28;20030;-62
2023/07/30 03:35:34;;;;;;;7.13;2.45;;;17.20;99.90;;;;;;5036188;28;20427;-61
2023/07/30 03:38:00;;;;;;;9.23;3.10;;;17.20;99.90;;;;;;5038944;28;20036;-61
2023/07/30 03:40:25;;;;;;;11.63;3.38;;;17.20;99.90;;;;;;5040089;28;20084;-62
2023/07/30 03:42:51;;;;;;;8.82;2.63;;;17.20;99.90;;;;;;5034977;28;20447;-62
2023/07/30 03:45:16;;;;;;;10.48;2.75;;;17.20;99.90;;;;;;5041073;28;20436;-61
2023/07/30 03:47:42;;;;;;;9.32;2.53;;;17.20;99.90;;;;;;5042115;28;20017;-61
2023/07/30 03:50:08;;;;;;;10.00;3.78;;;17.10;99.90;;;;;;5038051;28;20061;-58
2023/07/30 03:52:33;;;;;;;13.90;2.95;;;17.00;99.90;;;;;;5042416;28;20052;-62
2023/07/30 03:54:59;;;;;;;12.95;3.13;;;17.00;99.90;;;;;;5037654;28;20370;-62
2023/07/30 03:57:24;;;;;;;14.95;2.85;;;16.90;99.90;;;;;;5034582;28;20028;-61
2023/07/30 03:59:50;;;;;;;8.32;3.03;;;16.90;99.90;;;;;;5038583;28;20510;-61
2023/07/30 04:02:15;;;;;;;10.70;3.30;;;16.90;99.90;;;;;;5043589;28;20034;-62
2023/07/30 04:04:44;;;;;;;11.40;3.25;;;16.80;99.90;;;;;;5037810;28;20039;-62
2023/07/30 04:07:10;;;;;;;11.35;4.28;;;16.80;99.90;;;;;;5039104;28;20034;-62
2023/07/30 04:09:36;;;;;;;12.00;3.15;;;16.80;99.90;;;;;;5036729;28;20512;-63
2023/07/30 04:12:01;;;;;;;10.15;2.75;;;16.70;99.90;;;;;;5051018;28;20109;-61
2023/07/30 04:14:27;;;;;;;12.20;3.35;;;16.80;99.90;;;;;;5037531;28;20504;-61
2023/07/30 04:16:52;;;;;;;14.63;2.83;;;16.80;99.90;;;;;;5034271;28;20026;-61
2023/07/30 04:19:18;;;;;;;8.65;3.25;;;16.90;99.90;;;;;;5042452;28;20029;-61
2023/07/30 04:21:43;;;;;;;9.00;2.67;;;16.90;99.90;;;;;;5039118;28;20520;-61
2023/07/30 04:24:09;;;;;;;11.85;3.42;;;17.00;99.90;;;;;;5033442;28;20041;-61
2023/07/30 04:26:34;;;;;;;12.35;4.10;;;17.00;99.90;;;;;;5037167;28;20029;-61
2023/07/30 04:29:00;;;;;;;8.88;2.50;;;16.90;99.90;;;;;;5034113;28;20087;-62
2023/07/30 04:31:25;;;;;;;7.80;3.08;;;16.90;99.90;;;;;;5037341;28;20508;-62
2023/07/30 04:33:51;;;;;;;19.90;3.55;;;16.90;99.90;;;;;;5040884;28;20025;-61
2023/07/30 04:36:16;;;;;;;9.88;2.83;;;16.90;99.90;;;;;;5034601;28;20464;-61
2023/07/30 04:38:42;;;;;;;11.70;2.72;;;16.90;99.90;;;;;;5039344;28;20538;-61
2023/07/30 04:41:08;;;;;;;6.78;2.58;;;16.90;99.90;;;;;;5037092;28;20029;-60
2023/07/30 04:43:33;;;;;;;8.82;2.45;;;16.90;99.90;;;;;;5033318;28;20366;-61
2023/07/30 04:45:59;;;;;;;9.38;2.45;;;16.90;99.90;;;;;;5033627;28;20049;-59
2023/07/30 04:48:24;;;;;;;12.10;2.65;;;16.90;99.90;;;;;;5040613;28;20033;-60
2023/07/30 04:50:50;;;;;;;7.10;2.22;;;16.90;99.90;;;;;;5035886;28;20032;-59
2023/07/30 04:53:16;;;;;;;7.70;2.05;;;16.90;99.90;;;;;;5039585;28;20022;-61
2023/07/30 04:55:42;;;;;;;12.35;2.38;;;17.00;99.90;;;;;;5036078;28;20018;-61
2023/07/30 04:58:08;;;;;;;9.25;2.58;;;17.00;99.90;;;;;;5032585;28;20029;-61
2023/07/30 05:00:33;;;;;;;12.38;2.33;;;17.00;99.90;;;;;;5035341;28;20024;-61
2023/07/30 05:02:59;;;;;;;10.38;2.10;;;17.00;99.90;;;;;;5036579;28;20029;-58
2023/07/30 05:05:24;;;;;;;7.15;2.47;;;17.00;99.90;;;;;;5035453;28;20056;-61
2023/07/30 05:07:50;;;;;;;13.90;2.33;;;17.10;99.90;;;;;;5039649;28;20056;-59
2023/07/30 05:10:16;;;;;;;10.27;2.28;;;17.00;99.90;;;;;;5034616;28;20033;-60
2023/07/30 05:12:41;;;;;;;8.57;2.40;;;17.10;99.90;;;;;;5033585;28;20030;-60
2023/07/30 05:15:07;;;;;;;12.00;2.00;;;17.00;99.90;;;;;;5034637;28;20026;-59
2023/07/30 05:17:33;;;;;;;7.72;2.63;;;17.00;99.90;;;;;;5039228;28;20170;-61
2023/07/30 05:19:59;;;;;;;9.95;1.92;;;17.00;99.90;;;;;;5035277;28;20092;-61
2023/07/30 05:22:25;;;;;;;11.70;2.35;;;17.00;99.90;;;;;;5038670;28;20045;-61
2023/07/30 05:24:50;;;;;;;10.43;2.10;;;17.00;99.90;;;;;;5031839;28;20104;-62
2023/07/30 05:27:16;;;;;;;7.28;1.77;;;17.00;99.90;;;;;;5035401;28;20152;-61
2023/07/30 05:29:41;;;;;;;7.13;2.05;;;17.00;99.90;;;;;;5034611;28;20024;-60
2023/07/30 05:32:09;;;;;;;10.40;2.08;;;17.00;99.90;;;;;;5031046;28;20504;-61
2023/07/30 05:34:34;;;;;;;11.45;2.47;;;17.10;99.90;;;;;;5038728;28;20035;-60
2023/07/30 05:37:00;;;;;;;7.47;1.77;;;17.00;99.90;;;;;;5032184;28;20049;-61
2023/07/30 05:39:26;;;;;;;12.05;1.95;;;17.10;99.90;;;;;;5039060;28;20022;-60
2023/07/30 05:41:51;;;;;;;10.32;2.45;;;17.10;99.90;;;;;;5034055;28;20437;-61
2023/07/30 05:44:17;;;;;;;5.53;1.80;;;17.10;99.90;;;;;;5031999;28;20029;-60
2023/07/30 05:46:43;;;;;;;4.65;1.50;;;17.10;99.90;;;;;;5034502;28;20035;-61
2023/07/30 05:49:08;;;;;;;9.52;2.17;;;17.10;99.90;;;;;;5031784;28;20508;-61
2023/07/30 05:51:34;;;;;;;5.25;1.73;;;17.10;99.90;;;;;;5034593;28;20025;-62
2023/07/30 05:53:59;;;;;;;11.95;2.38;;;17.00;99.90;;;;;;5038504;28;20021;-61
2023/07/30 05:56:25;;;;;;;10.55;2.08;;;17.10;99.90;;;;;;5033358;28;20546;-62
2023/07/30 05:58:50;;;;;;;10.07;2.13;;;17.10;99.90;;;;;;5030958;28;20025;-61
2023/07/30 06:01:17;;;;;;;10.00;1.90;;;17.10;99.90;;;;;;5034447;28;20401;-62
2023/07/30 06:03:42;;;;;;;5.45;1.75;;;17.10;99.90;;;;;;5034333;28;20055;-61
2023/07/30 06:06:08;;;;;;;8.00;1.67;;;17.10;99.90;;;;;;5030231;28;20072;-61
2023/07/30 06:08:33;;;;;;;9.98;1.90;;;17.20;99.90;;;;;;5037791;28;20618;-61
2023/07/30 06:11:03;;;;;;;9.02;2.88;;;17.10;99.90;;;;;;5032355;28;20030;-62
2023/07/30 06:13:29;;;;;;;10.88;2.00;;;17.20;99.90;;;;;;5031165;28;20608;-62
2023/07/30 06:15:55;;;;;;;5.22;1.50;;;17.10;99.90;;;;;;5033164;28;20116;-61
2023/07/30 06:18:20;;;;;;;5.20;1.58;;;17.20;99.90;;;;;;5031294;28;20059;-61
2023/07/30 06:20:46;;;;;;;8.70;1.70;;;17.10;99.90;;;;;;5034328;28;20033;-62
2023/07/30 06:23:11;;;;;;;9.43;2.05;;;17.10;99.90;;;;;;5033844;28;20022;-61
2023/07/30 06:25:37;;;;;;;6.50;1.80;;;17.10;99.90;;;;;;5032973;28;20029;-61
2023/07/30 06:28:04;;;;;;;9.23;2.20;;;17.10;99.90;;;;;;5028601;28;20025;-62
2023/07/30 06:30:29;;;;;;;6.70;1.92;;;17.20;99.90;;;;;;5032709;28;20029;-61
2023/07/30 06:32:55;;;;;;;16.13;2.80;;;17.20;99.90;;;;;;5031477;28;20086;-61
2023/07/30 06:35:20;;;;;;;5.68;1.60;;;17.10;99.90;;;;;;5032819;28;20374;-61
2023/07/30 06:37:46;;;;;;;4.03;1.90;;;17.20;99.90;;;;;;5036224;28;20026;-62
2023/07/30 06:40:11;;;;;;;8.45;1.92;;;17.20;99.90;;;;;;5034262;28;20026;-62
2023/07/30 06:42:37;;;;;;;3.40;1.50;;;17.20;99.90;;;;;;5037398;28;20033;-62
2023/07/30 06:45:03;;;;;;;6.28;1.40;;;17.20;99.90;;;;;;5045394;28;20021;-62
2023/07/30 06:47:29;;;;;;;8.18;1.75;;;17.10;99.90;;;;;;5033511;28;20049;-61
2023/07/30 06:49:54;;;;;;;8.23;1.88;;;17.10;99.90;;;;;;5035153;28;20481;-62
2023/07/30 06:52:20;;;;;;;10.43;1.40;;;17.10;99.90;;;;;;5032162;28;20030;-61
2023/07/30 06:54:46;;;;;;;13.18;1.65;;;17.10;99.90;;;;;;5036063;28;20017;-62
2023/07/30 06:57:11;;;;;;;4.65;2.33;;;17.00;99.90;;;;;;5031559;28;20493;-61
2023/07/30 06:59:37;;;;;;;6.97;1.25;;;17.00;99.90;;;;;;5031008;28;20022;-62
2023/07/30 07:02:05;;;;;;;7.22;1.20;;;17.00;99.90;;;;;;5032003;28;20048;-59
2023/07/30 07:04:30;;;;;;;3.75;1.70;;;17.10;99.90;;;;;;5034884;28;20079;-62
2023/07/30 07:06:56;;;;;;;3.55;1.15;;;17.10;99.90;;;;;;5033702;28;20420;-62
2023/07/30 07:09:22;;;;;;;6.65;1.40;;;17.10;99.90;;;;;;5031816;28;20033;-62
2023/07/30 07:11:47;;;;;;;4.50;1.25;;;17.10;99.90;;;;;;5039373;28;20496;-62
2023/07/30 07:14:13;;;;;;;5.47;1.05;;;17.20;99.90;;;;;;5035898;28;20036;-60
2023/07/30 07:16:38;;;;;;;7.72;1.38;;;17.20;99.90;;;;;;5035383;28;20052;-61
2023/07/30 07:19:05;;;;;;;7.38;1.23;;;17.30;99.90;;;;;;5035316;28;20022;-59
2023/07/30 07:21:30;;;;;;;5.75;1.38;;;17.40;99.90;;;;;;5037017;28;20034;-62
2023/07/30 07:23:56;;;;;;;6.72;1.30;;;17.50;99.90;;;;;;5039153;28;20028;-61
2023/07/30 07:26:21;;;;;;;6.20;1.15;;;17.40;99.90;;;;;;5052154;28;20037;-61
2023/07/30 07:28:47;;;;;;;5.85;1.35;;;17.50;99.90;;;;;;5034623;28;20028;-62
2023/07/30 07:31:12;;;;;;;6.38;1.42;;;17.60;99.90;;;;;;5050403;28;20056;-63
2023/07/30 07:33:38;;;;;;;7.65;1.48;;;17.70;99.90;;;;;;5039670;28;20101;-63
2023/07/30 07:36:05;;;;;;;8.43;1.63;;;17.70;99.90;;;;;;5034943;28;20116;-63
2023/07/30 07:38:32;;;;;;;12.57;3.33;;;17.70;99.90;;;;;;5034123;28;20489;-62
2023/07/30 07:40:57;;;;;;;7.97;1.60;;;17.80;99.90;;;;;;5036358;28;20101;-62
2023/07/30 07:43:23;;;;;;;13.55;1.80;;;17.80;99.90;;;;;;5034213;28;20148;-61
2023/07/30 07:45:48;;;;;;;10.07;2.45;;;17.80;99.90;;;;;;5033891;28;21685;-62
2023/07/30 07:48:14;;;;;;;6.05;1.80;;;17.80;99.90;;;;;;5039340;28;20044;-61
2023/07/30 07:50:39;;;;;;;11.70;1.88;;;17.80;99.90;;;;;;5036635;28;20037;-62
2023/07/30 07:53:05;;;;;;;10.90;1.92;;;17.80;99.90;;;;;;5034003;28;20021;-62
2023/07/30 07:55:30;;;;;;;9.73;2.35;;;17.80;99.90;;;;;;5035571;28;20022;-62
2023/07/30 07:57:56;;;;;;;6.40;1.50;;;17.80;99.90;;;;;;5033833;28;20022;-61
2023/07/30 08:00:21;;;;;;;13.52;2.22;;;17.90;99.90;;;;;;5034955;28;20094;-61
2023/07/30 08:02:47;;;;;;;15.55;2.25;;;17.70;99.90;;;;;;5039111;28;20041;-62
2023/07/30 08:05:13;;;;;;;10.88;2.38;;;17.70;99.90;;;;;;5035344;28;20155;-61
2023/07/30 08:07:39;;;;;;;15.82;2.40;;;17.70;99.90;;;;;;5034139;28;20053;-62
2023/07/30 08:10:05;;;;;;;10.82;2.25;;;17.80;99.90;;;;;;5034341;28;20051;-62
2023/07/30 08:12:34;;;;;;;11.25;1.75;;;17.80;99.90;;;;;;5033778;28;20393;-62
2023/07/30 08:14:59;;;;;;;14.10;2.28;;;18.00;99.90;;;;;;5034726;28;20032;-62
2023/07/30 08:17:25;;;;;;;11.82;2.45;;;18.10;99.90;;;;;;5038878;28;20163;-63
2023/07/30 08:19:50;;;;;;;11.55;2.10;;;18.30;99.90;;;;;;5036156;28;20037;-63
2023/07/30 08:22:16;;;;;;;9.50;2.10;;;18.30;99.90;;;;;;5033278;28;20037;-62
2023/07/30 08:24:41;;;;;;;12.48;2.38;;;18.20;99.90;;;;;;5048963;28;20033;-60
2023/07/30 08:27:07;;;;;;;16.15;2.28;;;18.20;99.90;;;;;;5034067;28;20032;-61
2023/07/30 08:29:33;;;;;;;11.02;2.50;;;18.00;99.90;;;;;;5033535;28;20040;-61
2023/07/30 08:31:58;;;;;;;10.35;3.00;;;18.00;99.90;;;;;;5040656;28;20030;-62
2023/07/30 08:34:24;;;;;;;16.92;2.90;;;18.00;99.90;;;;;;5034356;28;20079;-62
2023/07/30 08:36:49;;;;;;;14.80;2.90;;;17.90;99.90;;;;;;5033089;28;20022;-61
2023/07/30 08:39:15;;;;;;;17.45;2.65;;;18.00;99.90;;;;;;5033052;28;20029;-59
2023/07/30 08:41:40;;;;;;;10.45;2.38;;;17.90;99.90;;;;;;5034220;28;20090;-61
2023/07/30 08:44:06;;;;;;;11.70;2.60;;;17.80;99.90;;;;;;5032983;28;20393;-62
2023/07/30 08:46:32;;;;;;;10.88;2.85;;;17.70;99.90;;;;;;5034894;28;20033;-61
2023/07/30 08:48:57;;;;;;;17.58;2.80;;;17.60;99.90;;;;;;5033911;28;20041;-62
2023/07/30 08:51:24;;;;;;;10.30;3.15;;;17.80;99.90;;;;;;5032780;28;20108;-62
2023/07/30 08:53:51;;;;;;;22.33;3.13;;;18.00;99.90;;;;;;5051470;28;20026;-61
2023/07/30 08:56:18;;;;;;;11.68;2.85;;;18.30;99.90;;;;;;5033184;28;20049;-62
2023/07/30 08:58:44;;;;;;;16.02;2.78;;;18.60;99.90;;;;;;5032733;28;20041;-62
2023/07/30 09:01:12;;;;;;;15.57;2.75;;;18.70;99.90;;;;;;5034649;28;20079;-63
2023/07/30 09:03:39;;;;;;;11.70;2.78;;;18.80;99.90;;;;;;5032738;28;20396;-61
2023/07/30 09:06:05;;;;;;;11.88;2.85;;;18.90;99.90;;;;;;5038689;28;20021;-61
2023/07/30 09:08:32;;;;;;;19.52;2.08;;;19.20;99.90;;;;;;5032635;28;20027;-62
2023/07/30 09:11:05;;;;;;;12.35;2.33;;;19.10;99.90;;;;;;5032159;28;20022;-61
2023/07/30 09:13:40;;;;;;;7.22;2.22;;;19.30;99.90;;;;;;5031496;28;20025;-62
2023/07/30 09:16:13;;;;;;;14.35;2.22;;;19.10;99.90;;;;;;5027811;28;20052;-62
2023/07/30 09:18:42;;;;;;;12.07;2.50;;;19.10;99.90;;;;;;5032186;28;20022;-62
2023/07/30 09:21:09;;;;;;;10.68;2.17;;;19.10;99.90;;;;;;5033576;28;20076;-61
2023/07/30 09:23:40;;;;;;;21.60;3.75;;;19.00;99.90;;;;;;5032268;28;20047;-62
2023/07/30 09:26:06;;;;;;;13.55;1.80;;;19.10;99.90;;;;;;5026833;28;20027;-61
2023/07/30 09:28:31;;;;;;;8.18;1.90;;;19.00;99.90;;;;;;5032286;28;20033;-61
2023/07/30 09:31:01;;;;;;;9.75;2.05;;;19.10;99.90;;;;;;5033344;28;20108;-62
2023/07/30 09:33:27;;;;;;;11.25;1.67;;;19.00;99.90;;;;;;5032298;28;20021;-60
2023/07/30 09:35:53;;;;;;;10.73;2.17;;;18.90;99.90;;;;;;5032130;28;20109;-59
2023/07/30 09:38:19;;;;;;;12.80;1.92;;;18.80;99.90;;;;;;5031966;28;20540;-61
2023/07/30 09:40:49;;;;;;;8.25;2.45;;;18.80;99.90;;;;;;5033273;28;20116;-61
2023/07/30 09:43:15;;;;;;;8.25;1.90;;;18.90;99.90;;;;;;5038128;28;20397;-61
2023/07/30 09:45:44;;;;;;;15.63;2.42;;;19.10;99.90;;;;;;5032279;28;20021;-59
2023/07/30 09:48:09;;;;;;;14.30;2.03;;;19.20;99.90;;;;;;5034662;28;20029;-60
2023/07/30 09:50:36;;;;;;;16.23;2.95;;;19.20;99.90;;;;;;5032080;28;20040;-60
2023/07/30 09:53:04;;;;;;;10.25;1.77;;;19.40;99.90;;;;;;5031697;28;20021;-60
2023/07/30 09:55:29;;;;;;;11.88;2.53;;;19.40;99.90;;;;;;5031391;28;20408;-59
2023/07/30 09:57:55;;;;;;;10.60;1.80;;;19.70;99.90;;;;;;5032812;28;20112;-59
2023/07/30 10:00:21;;;;;;;10.63;2.03;;;19.40;99.90;;;;;;5036577;28;20028;-60
2023/07/30 10:02:48;;;;;;;9.10;1.70;;;19.70;99.90;;;;;;5033209;28;20056;-60
2023/07/30 10:05:19;;;;;;;8.27;1.73;;;19.90;99.90;;;;;;5031547;28;20040;-60
2023/07/30 10:07:52;;;;;;;11.63;2.22;;;19.90;99.90;;;;;;5032549;28;20052;-60
2023/07/30 10:10:19;;;;;;;8.98;1.60;;;20.10;99.90;;;;;;5031562;28;20040;-60
2023/07/30 10:12:46;;;;;;;13.43;2.38;;;20.10;99.90;;;;;;5030790;28;20022;-61
2023/07/30 10:15:12;;;;;;;9.73;2.28;;;19.70;99.90;;;;;;5031412;28;20120;-61
2023/07/30 10:17:37;;;;;;;10.05;1.65;;;19.70;99.90;;;;;;5031181;28;20101;-61
2023/07/30 10:20:19;;;;;;;14.45;2.05;;;19.80;99.90;;;;;;5031289;28;20030;-61
2023/07/30 10:22:45;;;;;;;5.82;1.88;;;19.70;99.90;;;;;;5031302;28;20068;-60
2023/07/30 10:25:12;;;;;;;9.80;2.13;;;19.50;99.90;;;;;;5030388;28;20029;-60
2023/07/30 10:27:43;;;;;;;7.80;2.00;;;19.40;99.90;;;;;;5032788;28;20029;-61
2023/07/30 10:30:14;;;;;;;7.10;1.55;;;19.40;99.90;;;;;;5031370;28;20535;-60
2023/07/30 10:33:00;;;;;;;11.10;2.30;;;19.50;99.90;;;;;;5030955;28;20021;-59
2023/07/30 10:35:42;;;;;;;12.38;2.45;;;19.60;99.90;;;;;;5031066;28;20071;-60
2023/07/30 10:38:30;;;;;;;9.95;1.67;;;20.00;99.90;;;;;;5035728;28;20537;-60
2023/07/30 10:41:16;;;;;;;9.73;1.50;;;20.40;99.90;;;;;;5036827;28;20501;-61
2023/07/30 10:43:45;;;;;;;10.43;1.98;;;20.80;99.90;;;;;;5031068;28;20032;-60
2023/07/30 10:46:12;;;;;;;11.38;1.77;;;21.10;99.90;;;;;;5038980;28;20033;-61
2023/07/30 10:48:40;;;;;;;7.40;1.70;;;21.30;99.90;;;;;;5051942;28;20039;-60
2023/07/30 10:51:08;;;;;;;14.25;1.88;;;20.70;99.90;;;;;;5041078;28;20485;-60
2023/07/30 10:53:35;;;;;;;7.18;1.40;;;20.70;99.90;;;;;;5045447;28;20060;-61
2023/07/30 10:56:03;;;;;;;5.07;1.30;;;20.50;99.90;;;;;;5042178;28;20020;-60
2023/07/30 10:58:30;;;;;;;9.02;2.15;;;20.30;99.90;;;;;;5036237;28;20113;-60
2023/07/30 11:00:56;;;;;;;8.95;1.48;;;20.20;99.90;;;;;;5042836;28;20090;-61
2023/07/30 11:03:27;;;;;;;5.78;1.58;;;20.20;99.90;;;;;;5047524;28;20053;-60
2023/07/30 11:05:54;;;;;;;6.13;1.73;;;20.30;99.90;;;;;;5040821;28;20094;-61
2023/07/30 11:08:21;;;;;;;6.97;1.60;;;20.90;99.90;;;;;;5048018;28;20057;-61
2023/07/30 11:10:47;;;;;;;12.88;1.67;;;21.50;99.90;;;;;;5040333;28;20033;-61
2023/07/30 11:13:16;;;;;;;6.40;1.85;;;21.90;99.90;;;;;;5036043;28;20034;-61
2023/07/30 11:15:44;;;;;;;10.48;1.63;;;21.90;99.90;;;;;;5045991;28;20021;-61
2023/07/30 11:18:14;;;;;;;10.95;1.65;;;21.80;99.90;;;;;;5042818;28;20029;-61
2023/07/30 11:20:40;;;;;;;6.70;1.33;;;21.60;99.90;;;;;;5047461;28;20112;-61
2023/07/30 11:23:22;;;;;;;4.03;1.05;;;21.50;99.90;;;;;;5044239;28;20108;-58
2023/07/30 11:25:51;;;;;;;5.38;1.27;;;21.30;99.90;;;;;;5035782;28;20027;-60
2023/07/30 11:28:29;;;;;;;6.53;1.40;;;21.60;99.90;;;;;;5042264;28;20027;-61
2023/07/30 11:31:00;;;;;;;8.32;1.10;;;21.50;99.90;;;;;;5045713;28;20025;-58
2023/07/30 11:33:26;;;;;;;5.85;1.45;;;21.60;99.90;;;;;;5040498;28;20306;-61
2023/07/30 11:35:52;;;;;;;2.60;0.95;;;21.40;99.90;;;;;;5047513;28;20075;-61
2023/07/30 11:38:19;;;;;;;5.32;1.27;;;21.20;99.90;;;;;;5037846;28;20048;-59
2023/07/30 11:40:46;;;;;;;5.30;1.50;;;21.10;99.90;;;;;;5042651;28;20063;-61
2023/07/30 11:43:12;;;;;;;8.68;1.17;;;21.00;99.90;;;;;;5040877;28;20024;-60
2023/07/30 11:45:38;;;;;;;8.35;1.27;;;21.00;99.90;;;;;;5044513;28;20419;-61
2023/07/30 11:48:09;;;;;;;7.20;1.05;;;21.10;99.90;;;;;;5040468;28;20105;-61
2023/07/30 11:50:47;;;;;;;6.53;1.30;;;21.00;99.90;;;;;;5045029;28;20029;-61
2023/07/30 11:53:14;;;;;;;8.95;1.40;;;20.90;99.90;;;;;;5035907;28;20021;-60
2023/07/30 11:55:40;;;;;;;5.75;1.10;;;21.00;99.90;;;;;;5037678;28;20497;-62
2023/07/30 11:58:07;;;;;;;12.43;1.13;;;21.00;99.90;;;;;;5040875;28;20080;-61
2023/07/30 12:00:33;;;;;;;6.72;1.10;;;20.80;99.90;;;;;;5039953;28;20105;-61
2023/07/30 12:03:08;;;;;;;4.60;1.52;;;20.90;99.90;;;;;;5043726;28;20508;-61
2023/07/30 12:05:35;;;;;;;5.75;1.35;;;20.80;99.90;;;;;;5041198;28;20377;-60
2023/07/30 12:08:03;;;;;;;11.10;1.85;;;20.70;99.90;;;;;;5037529;28;20057;-60
2023/07/30 12:10:44;;;;;;;6.03;1.40;;;20.80;99.90;;;;;;5040908;28;20021;-61
2023/07/30 12:13:17;;;;;;;6.88;1.35;;;20.80;99.90;;;;;;5042330;28;20044;-61
2023/07/30 12:15:53;;;;;;;8.38;1.45;;;20.80;99.90;;;;;;5037988;28;20024;-60
2023/07/30 12:18:20;;;;;;;6.38;1.33;;;20.90;99.90;;;;;;5044611;28;20021;-61
2023/07/30 12:20:46;;;;;;;11.00;1.50;;;20.90;99.90;;;;;;5037304;28;20029;-59
2023/07/30 12:23:12;;;;;;;9.45;1.58;;;20.90;99.90;;;;;;5039850;28;20107;-60
2023/07/30 12:25:38;;;;;;;5.43;1.23;;;20.90;99.90;;;;;;5041638;28;20144;-59
2023/07/30 12:28:04;;;;;;;4.25;1.02;;;20.80;99.90;;;;;;5045208;28;20378;-61
2023/07/30 12:30:30;;;;;;;6.50;1.20;;;20.70;99.90;;;;;;5040683;28;20025;-60
2023/07/30 12:32:56;;;;;;;9.35;1.40;;;20.60;99.90;;;;;;5040393;28;20028;-60
2023/07/30 12:35:21;;;;;;;6.22;1.20;;;20.70;99.90;;;;;;5038388;28;20076;-61
2023/07/30 12:37:47;;;;;;;4.30;1.50;;;20.90;99.90;;;;;;5037775;28;20051;-60
2023/07/30 12:40:12;;;;;;;13.57;1.73;;;21.40;99.90;;;;;;5042920;28;20018;-61